sensor_id;sensor_type;location;lat;lon;timestamp;pressure;altitude;pressure_sealevel;temperature;humidity
4398;BME280;2213;49.720;7.296;2023-02-20T00:02:20;99279.72;;;7.54;100.00
4398;BME280;2213;49.720;7.296;2023-02-20T00:04:50;99272.59;;;7.47;100.00
4398;BME280;2213;49.720;7.296;2023-02-20T00:07:20;99276.97;;;7.46;100.00
4398;BME280;2213;49.720;7.296;2023-02-20T00:09:50;99268.50;;;7.44;100.00
4398;BME280;2213;49.720;7.296;2023-02-20T00:12:20;99258.91;;;7.45;100.00
4398;BME280;2213;49.720;7.296;2023-02-20T00:14:50;99263.69;;;7.30;100.00
4398;BME280;2213;49.720;7.296;2023-02-20T00:17:22;99255.88;;;7.30;100.00
4398;BME280;2213;49.720;7.296;2023-02-20T00:19:53;99243.59;;;7.32;100.00
4398;BME280;2213;49.720;7.296;2023-02-20T00:22:24;99237.28;;;7.25;100.00
4398;BME280;2213;49.720;7.296;2023-02-20T00:24:54;99243.56;;;7.23;100.00
4398;BME280;2213;49.720;7.296;2023-02-20T00:27:24;99237.13;;;7.17;100.00
4398;BME280;2213;49.720;7.296;2023-02-20T00:29:53;99238.19;;;7.05;100.00
4398;BME280;2213;49.720;7.296;2023-02-20T00:32:24;99237.25;;;6.96;100.00
4398;BME280;2213;49.720;7.296;2023-02-20T00:34:55;99246.00;;;6.95;100.00
4398;BME280;2213;49.720;7.296;2023-02-20T00:37:25;99249.16;;;6.99;100.00
4398;BME280;2213;49.720;7.296;2023-02-20T00:39:55;99241.06;;;6.92;100.00
4398;BME280;2213;49.720;7.296;2023-02-20T00:42:25;99246.09;;;6.84;100.00
4398;BME280;2213;49.720;7.296;2023-02-20T00:44:54;99237.47;;;6.84;100.00
4398;BME280;2213;49.720;7.296;2023-02-20T00:47:24;99235.84;;;6.83;100.00
4398;BME280;2213;49.720;7.296;2023-02-20T00:49:54;99231.59;;;6.82;100.00
4398;BME280;2213;49.720;7.296;2023-02-20T00:52:24;99223.53;;;6.75;100.00
4398;BME280;2213;49.720;7.296;2023-02-20T00:54:54;99226.78;;;6.68;100.00
4398;BME280;2213;49.720;7.296;2023-02-20T00:57:23;99218.88;;;6.69;100.00
4398;BME280;2213;49.720;7.296;2023-02-20T00:59:53;99213.66;;;6.69;100.00
4398;BME280;2213;49.720;7.296;2023-02-20T01:02:26;99209.97;;;6.72;100.00
4398;BME280;2213;49.720;7.296;2023-02-20T01:04:55;99205.31;;;6.66;100.00
4398;BME280;2213;49.720;7.296;2023-02-20T01:07:25;99213.66;;;6.69;100.00
4398;BME280;2213;49.720;7.296;2023-02-20T01:09:56;99213.13;;;6.66;100.00
4398;BME280;2213;49.720;7.296;2023-02-20T01:12:26;99211.84;;;6.60;100.00
4398;BME280;2213;49.720;7.296;2023-02-20T01:14:55;99200.50;;;6.51;100.00
4398;BME280;2213;49.720;7.296;2023-02-20T01:17:25;99200.22;;;6.54;100.00
4398;BME280;2213;49.720;7.296;2023-02-20T01:19:55;99197.47;;;6.56;100.00
4398;BME280;2213;49.720;7.296;2023-02-20T01:22:24;99208.09;;;6.34;100.00
4398;BME280;2213;49.720;7.296;2023-02-20T01:24:54;99198.25;;;6.37;100.00
4398;BME280;2213;49.720;7.296;2023-02-20T01:27:24;99203.72;;;6.34;100.00
4398;BME280;2213;49.720;7.296;2023-02-20T01:29:54;99199.28;;;6.25;100.00
4398;BME280;2213;49.720;7.296;2023-02-20T01:32:25;99200.00;;;6.27;100.00
4398;BME280;2213;49.720;7.296;2023-02-20T01:34:55;99195.91;;;6.25;100.00
4398;BME280;2213;49.720;7.296;2023-02-20T01:37:25;99196.59;;;6.27;100.00
4398;BME280;2213;49.720;7.296;2023-02-20T01:39:55;99208.91;;;6.25;100.00
4398;BME280;2213;49.720;7.296;2023-02-20T01:42:29;99193.16;;;6.26;100.00
4398;BME280;2213;49.720;7.296;2023-02-20T01:45:24;99195.09;;;6.24;100.00
4398;BME280;2213;49.720;7.296;2023-02-20T01:47:57;99196.69;;;6.25;100.00
4398;BME280;2213;49.720;7.296;2023-02-20T01:50:31;99201.91;;;6.25;100.00
4398;BME280;2213;49.720;7.296;2023-02-20T01:53:06;99196.13;;;6.22;100.00
4398;BME280;2213;49.720;7.296;2023-02-20T01:55:44;99190.38;;;6.18;100.00
4398;BME280;2213;49.720;7.296;2023-02-20T01:58:21;99187.22;;;6.15;100.00
4398;BME280;2213;49.720;7.296;2023-02-20T02:00:53;99183.41;;;6.09;100.00
4398;BME280;2213;49.720;7.296;2023-02-20T02:03:28;99180.78;;;6.09;100.00
4398;BME280;2213;49.720;7.296;2023-02-20T02:06:02;99181.31;;;6.03;100.00
4398;BME280;2213;49.720;7.296;2023-02-20T02:08:36;99195.00;;;6.05;100.00
4398;BME280;2213;49.720;7.296;2023-02-20T02:11:11;99187.34;;;6.03;100.00
4398;BME280;2213;49.720;7.296;2023-02-20T02:13:43;99192.25;;;5.97;100.00
4398;BME280;2213;49.720;7.296;2023-02-20T02:16:24;99192.47;;;5.94;100.00
4398;BME280;2213;49.720;7.296;2023-02-20T02:19:07;99185.66;;;5.93;100.00
4398;BME280;2213;49.720;7.296;2023-02-20T02:22:41;99186.72;;;5.90;100.00
4398;BME280;2213;49.720;7.296;2023-02-20T02:25:41;99190.13;;;5.91;100.00
4398;BME280;2213;49.720;7.296;2023-02-20T02:29:14;99183.94;;;5.82;100.00
4398;BME280;2213;49.720;7.296;2023-02-20T02:32:35;99180.50;;;5.82;100.00
4398;BME280;2213;49.720;7.296;2023-02-20T02:35:53;99180.78;;;5.79;100.00
4398;BME280;2213;49.720;7.296;2023-02-20T02:38:31;99183.38;;;5.79;100.00
4398;BME280;2213;49.720;7.296;2023-02-20T02:41:13;99185.81;;;5.80;100.00
4398;BME280;2213;49.720;7.296;2023-02-20T02:43:53;99181.16;;;5.74;100.00
4398;BME280;2213;49.720;7.296;2023-02-20T02:46:31;99180.56;;;5.71;100.00
4398;BME280;2213;49.720;7.296;2023-02-20T02:49:13;99172.78;;;5.71;100.00
4398;BME280;2213;49.720;7.296;2023-02-20T02:51:49;99170.53;;;5.56;100.00
4398;BME280;2213;49.720;7.296;2023-02-20T02:54:26;99175.19;;;5.63;100.00
4398;BME280;2213;49.720;7.296;2023-02-20T02:57:20;99173.31;;;5.65;100.00
4398;BME280;2213;49.720;7.296;2023-02-20T02:59:56;99168.13;;;5.65;100.00
4398;BME280;2213;49.720;7.296;2023-02-20T03:02:32;99161.53;;;5.61;100.00
4398;BME280;2213;49.720;7.296;2023-02-20T03:05:08;99164.50;;;5.56;100.00
4398;BME280;2213;49.720;7.296;2023-02-20T03:07:44;99154.28;;;5.54;100.00
4398;BME280;2213;49.720;7.296;2023-02-20T03:10:20;99162.44;;;5.50;100.00
4398;BME280;2213;49.720;7.296;2023-02-20T03:13:04;99159.72;;;5.51;100.00
4398;BME280;2213;49.720;7.296;2023-02-20T03:15:39;99154.28;;;5.54;100.00
4398;BME280;2213;49.720;7.296;2023-02-20T03:18:26;99158.75;;;5.52;100.00
4398;BME280;2213;49.720;7.296;2023-02-20T03:21:10;99155.75;;;5.47;100.00
4398;BME280;2213;49.720;7.296;2023-02-20T03:23:52;99152.31;;;5.47;100.00
4398;BME280;2213;49.720;7.296;2023-02-20T03:26:29;99145.38;;;5.47;100.00
4398;BME280;2213;49.720;7.296;2023-02-20T03:29:05;99142.63;;;5.49;100.00
4398;BME280;2213;49.720;7.296;2023-02-20T03:31:42;99137.69;;;5.46;100.00
4398;BME280;2213;49.720;7.296;2023-02-20T03:34:20;99138.53;;;5.46;100.00
4398;BME280;2213;49.720;7.296;2023-02-20T03:37:15;99134.59;;;5.31;100.00
4398;BME280;2213;49.720;7.296;2023-02-20T03:40:11;99139.56;;;5.34;100.00
4398;BME280;2213;49.720;7.296;2023-02-20T03:43:06;99130.53;;;5.38;100.00
4398;BME280;2213;49.720;7.296;2023-02-20T03:45:57;99143.50;;;5.38;100.00
4398;BME280;2213;49.720;7.296;2023-02-20T03:48:38;99132.47;;;5.36;100.00
4398;BME280;2213;49.720;7.296;2023-02-20T03:51:09;99129.19;;;5.34;100.00
4398;BME280;2213;49.720;7.296;2023-02-20T03:53:56;99138.84;;;5.32;100.00
4398;BME280;2213;49.720;7.296;2023-02-20T03:56:34;99136.78;;;5.26;100.00
4398;BME280;2213;49.720;7.296;2023-02-20T03:59:12;99142.72;;;5.17;100.00
4398;BME280;2213;49.720;7.296;2023-02-20T04:01:50;99145.75;;;5.22;100.00
4398;BME280;2213;49.720;7.296;2023-02-20T04:04:27;99141.38;;;5.23;100.00
4398;BME280;2213;49.720;7.296;2023-02-20T04:07:00;99137.75;;;5.14;100.00
4398;BME280;2213;49.720;7.296;2023-02-20T04:09:36;99138.28;;;5.08;100.00
4398;BME280;2213;49.720;7.296;2023-02-20T04:12:19;99142.25;;;5.12;100.00
4398;BME280;2213;49.720;7.296;2023-02-20T04:14:53;99146.50;;;5.13;100.00
4398;BME280;2213;49.720;7.296;2023-02-20T04:17:29;99145.69;;;5.13;100.00
4398;BME280;2213;49.720;7.296;2023-02-20T04:20:02;99149.34;;;5.10;100.00
4398;BME280;2213;49.720;7.296;2023-02-20T04:22:38;99152.53;;;5.14;100.00
4398;BME280;2213;49.720;7.296;2023-02-20T04:25:15;99147.19;;;5.15;100.00
4398;BME280;2213;49.720;7.296;2023-02-20T04:27:47;99142.94;;;5.14;100.00
4398;BME280;2213;49.720;7.296;2023-02-20T04:30:17;99152.53;;;5.14;100.00
4398;BME280;2213;49.720;7.296;2023-02-20T04:32:46;99141.31;;;5.13;100.00
4398;BME280;2213;49.720;7.296;2023-02-20T04:35:18;99149.78;;;5.15;100.00
4398;BME280;2213;49.720;7.296;2023-02-20T04:37:48;99146.94;;;5.18;100.00
4398;BME280;2213;49.720;7.296;2023-02-20T04:40:20;99141.63;;;5.20;100.00
4398;BME280;2213;49.720;7.296;2023-02-20T04:42:51;99139.88;;;5.20;100.00
4398;BME280;2213;49.720;7.296;2023-02-20T04:45:22;99141.25;;;5.24;100.00
4398;BME280;2213;49.720;7.296;2023-02-20T04:47:52;99129.41;;;5.31;100.00
4398;BME280;2213;49.720;7.296;2023-02-20T04:50:27;99129.97;;;5.35;100.00
4398;BME280;2213;49.720;7.296;2023-02-20T04:52:57;99130.53;;;5.38;100.00
4398;BME280;2213;49.720;7.296;2023-02-20T04:55:27;99125.00;;;5.43;100.00
4398;BME280;2213;49.720;7.296;2023-02-20T04:57:58;99122.97;;;5.46;100.00
4398;BME280;2213;49.720;7.296;2023-02-20T05:00:29;99123.78;;;5.47;100.00
4398;BME280;2213;49.720;7.296;2023-02-20T05:03:00;99128.84;;;5.48;100.00
4398;BME280;2213;49.720;7.296;2023-02-20T05:05:29;99136.88;;;5.45;100.00
4398;BME280;2213;49.720;7.296;2023-02-20T05:08:02;99128.53;;;5.42;100.00
4398;BME280;2213;49.720;7.296;2023-02-20T05:10:33;99121.56;;;5.42;100.00
4398;BME280;2213;49.720;7.296;2023-02-20T05:13:04;99129.34;;;5.42;100.00
4398;BME280;2213;49.720;7.296;2023-02-20T05:15:34;99129.09;;;5.45;100.00
4398;BME280;2213;49.720;7.296;2023-02-20T05:18:05;99125.28;;;5.49;100.00
4398;BME280;2213;49.720;7.296;2023-02-20T05:20:35;99121.75;;;5.50;100.00
4398;BME280;2213;49.720;7.296;2023-02-20T05:23:30;99129.28;;;5.53;100.00
4398;BME280;2213;49.720;7.296;2023-02-20T05:26:00;99136.94;;;5.55;100.00
4398;BME280;2213;49.720;7.296;2023-02-20T05:28:32;99139.41;;;5.56;100.00
4398;BME280;2213;49.720;7.296;2023-02-20T05:31:03;99137.50;;;5.58;100.00
4398;BME280;2213;49.720;7.296;2023-02-20T05:33:33;99139.03;;;5.61;100.00
4398;BME280;2213;49.720;7.296;2023-02-20T05:36:05;99133.84;;;5.61;100.00
4398;BME280;2213;49.720;7.296;2023-02-20T05:38:35;99144.88;;;5.63;100.00
4398;BME280;2213;49.720;7.296;2023-02-20T05:41:05;99128.50;;;5.63;100.00
4398;BME280;2213;49.720;7.296;2023-02-20T05:43:37;99131.34;;;5.59;100.00
4398;BME280;2213;49.720;7.296;2023-02-20T05:46:08;99124.69;;;5.67;100.00
4398;BME280;2213;49.720;7.296;2023-02-20T05:48:40;99119.25;;;5.70;100.00
4398;BME280;2213;49.720;7.296;2023-02-20T05:51:08;99121.16;;;5.68;100.00
4398;BME280;2213;49.720;7.296;2023-02-20T05:53:36;99119.78;;;5.64;100.00
4398;BME280;2213;49.720;7.296;2023-02-20T05:56:07;99118.13;;;5.63;100.00
4398;BME280;2213;49.720;7.296;2023-02-20T05:58:40;99109.91;;;5.57;100.00
4398;BME280;2213;49.720;7.296;2023-02-20T06:01:18;99117.44;;;5.61;100.00
4398;BME280;2213;49.720;7.296;2023-02-20T06:03:48;99114.41;;;5.55;100.00
4398;BME280;2213;49.720;7.296;2023-02-20T06:06:19;99112.78;;;5.54;100.00
4398;BME280;2213;49.720;7.296;2023-02-20T06:08:50;99121.50;;;5.53;100.00
4398;BME280;2213;49.720;7.296;2023-02-20T06:11:20;99122.44;;;5.52;100.00
4398;BME280;2213;49.720;7.296;2023-02-20T06:13:51;99119.69;;;5.44;100.00
4398;BME280;2213;49.720;7.296;2023-02-20T06:16:25;99122.13;;;5.46;100.00
4398;BME280;2213;49.720;7.296;2023-02-20T06:18:54;99129.81;;;5.47;100.00
4398;BME280;2213;49.720;7.296;2023-02-20T06:21:24;99123.75;;;5.37;100.00
4398;BME280;2213;49.720;7.296;2023-02-20T06:23:54;99121.53;;;5.33;100.00
4398;BME280;2213;49.720;7.296;2023-02-20T06:26:23;99132.47;;;5.36;100.00
4398;BME280;2213;49.720;7.296;2023-02-20T06:28:55;99117.84;;;5.35;100.00
4398;BME280;2213;49.720;7.296;2023-02-20T06:31:27;99128.63;;;5.31;100.00
4398;BME280;2213;49.720;7.296;2023-02-20T06:33:56;99121.22;;;5.26;100.00
4398;BME280;2213;49.720;7.296;2023-02-20T06:36:29;99121.84;;;5.19;100.00
4398;BME280;2213;49.720;7.296;2023-02-20T06:39:00;99128.53;;;5.21;100.00
4398;BME280;2213;49.720;7.296;2023-02-20T06:41:30;99116.53;;;5.20;100.00
4398;BME280;2213;49.720;7.296;2023-02-20T06:44:01;99123.03;;;5.15;100.00
4398;BME280;2213;49.720;7.296;2023-02-20T06:46:30;99119.19;;;5.09;100.00
4398;BME280;2213;49.720;7.296;2023-02-20T06:49:02;99126.81;;;5.11;100.00
4398;BME280;2213;49.720;7.296;2023-02-20T06:51:33;99131.44;;;5.07;100.00
4398;BME280;2213;49.720;7.296;2023-02-20T06:54:06;99127.22;;;5.06;100.00
4398;BME280;2213;49.720;7.296;2023-02-20T06:56:36;99128.66;;;4.99;100.00
4398;BME280;2213;49.720;7.296;2023-02-20T06:59:07;99132.78;;;5.01;100.00
4398;BME280;2213;49.720;7.296;2023-02-20T07:01:41;99137.84;;;5.03;100.00
4398;BME280;2213;49.720;7.296;2023-02-20T07:04:17;99143.03;;;5.03;100.00
4398;BME280;2213;49.720;7.296;2023-02-20T07:06:47;99137.38;;;4.98;100.00
4398;BME280;2213;49.720;7.296;2023-02-20T07:09:17;99137.69;;;5.04;100.00
4398;BME280;2213;49.720;7.296;2023-02-20T07:11:46;99134.84;;;5.07;100.00
4398;BME280;2213;49.720;7.296;2023-02-20T07:14:18;99133.09;;;5.08;100.00
4398;BME280;2213;49.720;7.296;2023-02-20T07:16:49;99139.09;;;5.08;100.00
4398;BME280;2213;49.720;7.296;2023-02-20T07:19:20;99138.72;;;5.13;100.00
4398;BME280;2213;49.720;7.296;2023-02-20T07:21:50;99138.47;;;5.16;100.00
4398;BME280;2213;49.720;7.296;2023-02-20T07:24:20;99140.13;;;5.17;100.00
4398;BME280;2213;49.720;7.296;2023-02-20T07:26:50;99141.63;;;5.20;100.00
4398;BME280;2213;49.720;7.296;2023-02-20T07:29:21;99147.41;;;5.23;100.00
4398;BME280;2213;49.720;7.296;2023-02-20T07:31:51;99143.72;;;5.26;100.00
4398;BME280;2213;49.720;7.296;2023-02-20T07:34:20;99145.22;;;5.28;100.00
4398;BME280;2213;49.720;7.296;2023-02-20T07:36:53;99150.66;;;5.25;100.00
4398;BME280;2213;49.720;7.296;2023-02-20T07:39:22;99154.66;;;5.29;100.00
4398;BME280;2213;49.720;7.296;2023-02-20T07:41:55;99151.81;;;5.32;100.00
4398;BME280;2213;49.720;7.296;2023-02-20T07:44:26;99154.41;;;5.32;100.00
4398;BME280;2213;49.720;7.296;2023-02-20T07:46:58;99149.38;;;5.31;100.00
4398;BME280;2213;49.720;7.296;2023-02-20T07:49:29;99152.53;;;5.34;100.00
4398;BME280;2213;49.720;7.296;2023-02-20T07:52:00;99151.56;;;5.35;100.00
4398;BME280;2213;49.720;7.296;2023-02-20T07:54:30;99146.09;;;5.38;100.00
4398;BME280;2213;49.720;7.296;2023-02-20T07:57:00;99144.34;;;5.39;100.00
4398;BME280;2213;49.720;7.296;2023-02-20T07:59:33;99143.66;;;5.37;100.00
4398;BME280;2213;49.720;7.296;2023-02-20T08:02:03;99134.69;;;5.41;100.00
4398;BME280;2213;49.720;7.296;2023-02-20T08:04:32;99139.47;;;5.45;100.00
4398;BME280;2213;49.720;7.296;2023-02-20T08:07:02;99137.44;;;5.49;100.00
4398;BME280;2213;49.720;7.296;2023-02-20T08:09:33;99132.00;;;5.52;100.00
4398;BME280;2213;49.720;7.296;2023-02-20T08:12:03;99135.28;;;5.54;100.00
4398;BME280;2213;49.720;7.296;2023-02-20T08:14:33;99129.03;;;5.56;100.00
4398;BME280;2213;49.720;7.296;2023-02-20T08:17:03;99114.84;;;5.61;100.00
4398;BME280;2213;49.720;7.296;2023-02-20T08:19:32;99111.88;;;5.65;100.00
4398;BME280;2213;49.720;7.296;2023-02-20T08:22:03;99116.91;;;5.67;100.00
4398;BME280;2213;49.720;7.296;2023-02-20T08:24:33;99118.19;;;5.72;100.00
4398;BME280;2213;49.720;7.296;2023-02-20T08:27:03;99114.81;;;5.81;100.00
4398;BME280;2213;49.720;7.296;2023-02-20T08:29:33;99110.88;;;5.87;100.00
4398;BME280;2213;49.720;7.296;2023-02-20T08:32:03;99109.81;;;5.89;100.00
4398;BME280;2213;49.720;7.296;2023-02-20T08:34:34;99105.19;;;5.93;100.00
4398;BME280;2213;49.720;7.296;2023-02-20T08:37:04;99103.84;;;5.98;100.00
4398;BME280;2213;49.720;7.296;2023-02-20T08:39:33;99111.91;;;6.05;100.00
4398;BME280;2213;49.720;7.296;2023-02-20T08:42:03;99104.69;;;6.08;100.00
4398;BME280;2213;49.720;7.296;2023-02-20T08:44:34;99089.38;;;6.15;100.00
4398;BME280;2213;49.720;7.296;2023-02-20T08:47:04;99100.22;;;6.20;100.00
4398;BME280;2213;49.720;7.296;2023-02-20T08:49:34;99102.25;;;6.26;100.00
4398;BME280;2213;49.720;7.296;2023-02-20T08:52:04;99097.50;;;6.31;100.00
4398;BME280;2213;49.720;7.296;2023-02-20T08:54:34;99097.91;;;6.36;100.00
4398;BME280;2213;49.720;7.296;2023-02-20T08:57:05;99101.75;;;6.42;100.00
4398;BME280;2213;49.720;7.296;2023-02-20T08:59:37;99104.75;;;6.47;100.00
4398;BME280;2213;49.720;7.296;2023-02-20T09:02:15;99102.72;;;6.50;100.00
4398;BME280;2213;49.720;7.296;2023-02-20T09:04:45;99108.06;;;6.58;100.00
4398;BME280;2213;49.720;7.296;2023-02-20T09:07:15;99108.47;;;6.64;100.00
4398;BME280;2213;49.720;7.296;2023-02-20T09:09:44;99100.25;;;6.68;100.00
4398;BME280;2213;49.720;7.296;2023-02-20T09:12:14;99104.91;;;6.74;100.00
4398;BME280;2213;49.720;7.296;2023-02-20T09:14:46;99096.03;;;6.77;100.00
4398;BME280;2213;49.720;7.296;2023-02-20T09:17:16;99107.00;;;6.80;100.00
4398;BME280;2213;49.720;7.296;2023-02-20T09:19:46;99096.97;;;6.85;100.00
4398;BME280;2213;49.720;7.296;2023-02-20T09:22:20;99090.00;;;6.86;100.00
4398;BME280;2213;49.720;7.296;2023-02-20T09:24:49;99101.06;;;6.88;100.00
4398;BME280;2213;49.720;7.296;2023-02-20T09:27:19;99101.06;;;6.88;100.00
4398;BME280;2213;49.720;7.296;2023-02-20T09:29:50;99081.81;;;6.90;100.00
4398;BME280;2213;49.720;7.296;2023-02-20T09:32:19;99088.06;;;6.88;100.00
4398;BME280;2213;49.720;7.296;2023-02-20T09:34:50;99083.56;;;6.90;100.00
4398;BME280;2213;49.720;7.296;2023-02-20T09:37:20;99079.88;;;6.92;100.00
4398;BME280;2213;49.720;7.296;2023-02-20T09:39:50;99092.06;;;6.92;100.00
4398;BME280;2213;49.720;7.296;2023-02-20T09:42:33;99088.50;;;6.93;100.00
4398;BME280;2213;49.720;7.296;2023-02-20T09:45:14;99091.94;;;6.93;100.00
4398;BME280;2213;49.720;7.296;2023-02-20T09:48:06;99087.28;;;6.97;100.00
4398;BME280;2213;49.720;7.296;2023-02-20T09:50:47;99092.03;;;7.01;100.00
4398;BME280;2213;49.720;7.296;2023-02-20T09:53:22;99094.50;;;7.03;100.00
4398;BME280;2213;49.720;7.296;2023-02-20T09:55:54;99094.09;;;7.07;100.00
4398;BME280;2213;49.720;7.296;2023-02-20T09:58:39;99096.53;;;7.09;100.00
4398;BME280;2213;49.720;7.296;2023-02-20T10:01:15;99098.75;;;7.04;100.00
4398;BME280;2213;49.720;7.296;2023-02-20T10:03:54;99098.31;;;7.08;100.00
4398;BME280;2213;49.720;7.296;2023-02-20T10:06:27;99092.16;;;7.09;100.00
4398;BME280;2213;49.720;7.296;2023-02-20T10:08:56;99097.09;;;7.13;100.00
4398;BME280;2213;49.720;7.296;2023-02-20T10:11:55;99110.91;;;7.13;100.00
4398;BME280;2213;49.720;7.296;2023-02-20T10:14:53;99106.13;;;7.18;100.00
4398;BME280;2213;49.720;7.296;2023-02-20T10:17:56;99109.53;;;7.19;100.00
4398;BME280;2213;49.720;7.296;2023-02-20T10:20:37;99110.78;;;7.24;100.00
4398;BME280;2213;49.720;7.296;2023-02-20T10:23:21;99105.56;;;7.24;100.00
4398;BME280;2213;49.720;7.296;2023-02-20T10:26:00;99107.75;;;7.29;100.00
4398;BME280;2213;49.720;7.296;2023-02-20T10:28:30;99108.56;;;7.29;100.00
4398;BME280;2213;49.720;7.296;2023-02-20T10:31:14;99104.72;;;7.33;100.00
4398;BME280;2213;49.720;7.296;2023-02-20T10:33:57;99105.53;;;7.34;100.00
4398;BME280;2213;49.720;7.296;2023-02-20T10:36:37;99104.72;;;7.33;100.00
4398;BME280;2213;49.720;7.296;2023-02-20T10:39:10;99102.81;;;7.35;100.00
4398;BME280;2213;49.720;7.296;2023-02-20T10:41:46;99108.56;;;7.39;100.00
4398;BME280;2213;49.720;7.296;2023-02-20T10:44:26;99107.16;;;7.44;100.00
4398;BME280;2213;49.720;7.296;2023-02-20T10:47:13;99108.81;;;7.45;100.00
4398;BME280;2213;49.720;7.296;2023-02-20T10:49:56;99112.63;;;7.51;100.00
4398;BME280;2213;49.720;7.296;2023-02-20T10:52:36;99110.56;;;7.54;100.00
4398;BME280;2213;49.720;7.296;2023-02-20T10:55:16;99111.25;;;7.56;100.00
4398;BME280;2213;49.720;7.296;2023-02-20T10:57:56;99103.16;;;7.59;100.00
4398;BME280;2213;49.720;7.296;2023-02-20T11:00:32;99096.69;;;7.64;100.00
4398;BME280;2213;49.720;7.296;2023-02-20T11:03:07;99081.88;;;7.64;100.00
4398;BME280;2213;49.720;7.296;2023-02-20T11:05:48;99082.97;;;7.71;100.00
4398;BME280;2213;49.720;7.296;2023-02-20T11:08:20;99079.94;;;7.76;100.00
4398;BME280;2213;49.720;7.296;2023-02-20T11:10:57;99083.19;;;7.78;100.00
4398;BME280;2213;49.720;7.296;2023-02-20T11:13:27;99072.22;;;7.84;100.00
4398;BME280;2213;49.720;7.296;2023-02-20T11:15:56;99071.34;;;7.93;100.00
4398;BME280;2213;49.720;7.296;2023-02-20T11:18:34;99061.19;;;7.99;100.00
4398;BME280;2213;49.720;7.296;2023-02-20T11:21:05;99066.31;;;8.09;100.00
4398;BME280;2213;49.720;7.296;2023-02-20T11:23:40;99057.78;;;8.17;100.00
4398;BME280;2213;49.720;7.296;2023-02-20T11:26:31;99045.69;;;8.25;100.00
4398;BME280;2213;49.720;7.296;2023-02-20T11:29:10;99050.03;;;8.34;100.00
4398;BME280;2213;49.720;7.296;2023-02-20T11:31:43;99050.25;;;8.41;100.00
4398;BME280;2213;49.720;7.296;2023-02-20T11:34:19;99046.75;;;8.50;100.00
4398;BME280;2213;49.720;7.296;2023-02-20T11:36:54;99044.72;;;8.62;100.00
4398;BME280;2213;49.720;7.296;2023-02-20T11:39:33;99044.00;;;8.69;100.00
4398;BME280;2213;49.720;7.296;2023-02-20T11:42:11;99042.28;;;8.78;100.00
4398;BME280;2213;49.720;7.296;2023-02-20T11:44:40;99022.44;;;8.85;100.00
4398;BME280;2213;49.720;7.296;2023-02-20T11:47:20;99021.53;;;8.94;100.00
4398;BME280;2213;49.720;7.296;2023-02-20T11:50:14;99013.25;;;8.98;100.00
4398;BME280;2213;49.720;7.296;2023-02-20T11:53:00;99004.50;;;9.07;100.00
4398;BME280;2213;49.720;7.296;2023-02-20T11:55:33;99002.41;;;9.11;100.00
4398;BME280;2213;49.720;7.296;2023-02-20T11:58:03;98992.97;;;9.18;100.00
4398;BME280;2213;49.720;7.296;2023-02-20T12:00:46;98998.56;;;9.23;100.00
4398;BME280;2213;49.720;7.296;2023-02-20T12:03:22;98984.22;;;9.27;100.00
4398;BME280;2213;49.720;7.296;2023-02-20T12:05:52;98983.44;;;9.35;100.00
4398;BME280;2213;49.720;7.296;2023-02-20T12:08:48;98970.75;;;9.40;100.00
4398;BME280;2213;49.720;7.296;2023-02-20T12:11:24;98962.59;;;9.43;100.00
4398;BME280;2213;49.720;7.296;2023-02-20T12:13:57;98964.91;;;9.46;100.00
4398;BME280;2213;49.720;7.296;2023-02-20T12:17:05;98967.38;;;9.47;100.00
4398;BME280;2213;49.720;7.296;2023-02-20T12:19:53;98960.19;;;9.49;100.00
4398;BME280;2213;49.720;7.296;2023-02-20T12:22:33;98959.53;;;9.55;100.00
4398;BME280;2213;49.720;7.296;2023-02-20T12:25:36;98947.81;;;9.59;100.00
4398;BME280;2213;49.720;7.296;2023-02-20T12:28:19;98960.53;;;9.63;100.00
4398;BME280;2213;49.720;7.296;2023-02-20T12:31:19;98964.47;;;9.67;100.00
4398;BME280;2213;49.720;7.296;2023-02-20T12:34:42;98953.88;;;9.68;100.00
4398;BME280;2213;49.720;7.296;2023-02-20T12:37:23;98959.28;;;9.75;100.00
4398;BME280;2213;49.720;7.296;2023-02-20T12:40:18;98953.75;;;9.78;100.00
4398;BME280;2213;49.720;7.296;2023-02-20T12:42:58;98944.63;;;9.82;100.00
4398;BME280;2213;49.720;7.296;2023-02-20T12:45:37;98945.13;;;9.85;100.00
4398;BME280;2213;49.720;7.296;2023-02-20T12:48:27;98927.00;;;9.92;100.00
4398;BME280;2213;49.720;7.296;2023-02-20T12:51:13;98937.78;;;9.97;100.00
4398;BME280;2213;49.720;7.296;2023-02-20T12:54:05;98926.69;;;10.03;100.00
4398;BME280;2213;49.720;7.296;2023-02-20T12:56:57;98919.19;;;10.08;100.00
4398;BME280;2213;49.720;7.296;2023-02-20T12:59:39;98917.69;;;10.13;100.00
4398;BME280;2213;49.720;7.296;2023-02-20T13:02:26;98908.91;;;10.15;100.00
4398;BME280;2213;49.720;7.296;2023-02-20T13:05:13;98906.66;;;10.20;100.00
4398;BME280;2213;49.720;7.296;2023-02-20T13:07:51;98908.44;;;10.19;100.00
4398;BME280;2213;49.720;7.296;2023-02-20T13:10:24;98908.75;;;10.24;100.00
4398;BME280;2213;49.720;7.296;2023-02-20T13:12:58;98904.00;;;10.28;100.00
4398;BME280;2213;49.720;7.296;2023-02-20T13:15:39;98893.06;;;10.32;100.00
4398;BME280;2213;49.720;7.296;2023-02-20T13:18:21;98888.50;;;10.34;100.00
4398;BME280;2213;49.720;7.296;2023-02-20T13:20:57;98883.59;;;10.39;100.00
4398;BME280;2213;49.720;7.296;2023-02-20T13:23:33;98878.69;;;10.44;100.00
4398;BME280;2213;49.720;7.296;2023-02-20T13:29:14;98869.84;;;10.53;100.00
4398;BME280;2213;49.720;7.296;2023-02-20T13:31:48;98866.91;;;10.56;100.00
4398;BME280;2213;49.720;7.296;2023-02-20T13:34:38;98865.88;;;10.66;100.00
4398;BME280;2213;49.720;7.296;2023-02-20T13:37:49;98852.50;;;10.69;100.00
4398;BME280;2213;49.720;7.296;2023-02-20T13:41:02;98847.22;;;10.77;100.00
4398;BME280;2213;49.720;7.296;2023-02-20T13:43:33;98841.66;;;10.80;100.00
4398;BME280;2213;49.720;7.296;2023-02-20T13:46:16;98840.34;;;10.84;100.00
4398;BME280;2213;49.720;7.296;2023-02-20T13:48:53;98830.19;;;10.89;100.00
4398;BME280;2213;49.720;7.296;2023-02-20T13:51:34;98832.47;;;10.92;100.00
4398;BME280;2213;49.720;7.296;2023-02-20T13:54:30;98829.50;;;10.95;100.00
4398;BME280;2213;49.720;7.296;2023-02-20T13:57:16;98821.16;;;10.99;100.00
4398;BME280;2213;49.720;7.296;2023-02-20T13:59:48;98816.06;;;11.06;100.00
4398;BME280;2213;49.720;7.296;2023-02-20T14:02:22;98820.94;;;11.09;100.00
4398;BME280;2213;49.720;7.296;2023-02-20T14:05:00;98808.16;;;11.14;100.00
4398;BME280;2213;49.720;7.296;2023-02-20T14:07:33;98806.47;;;11.21;100.00
4398;BME280;2213;49.720;7.296;2023-02-20T14:10:12;98796.66;;;11.23;100.00
4398;BME280;2213;49.720;7.296;2023-02-20T14:12:44;98799.75;;;11.27;100.00